Time;durP1;ratioP1;P1;durP2;ratioP2;P2;SDS_P1;SDS_P2;PMS_P1;PMS_P2;Temp;Humidity;BMP_temperature;BMP_pressure;BME280_temperature;BME280_humidity;BME280_pressure;Samples;Min_cycle;Max_cycle;Signal;HPM_P1;HPM_P2
2022/10/20 00:00:06;;;;;;;1999.90;999.90;;;17.00;99.90;;;;;;5034668;28;20493;-73
2022/10/20 00:02:31;;;;;;;1999.90;999.90;;;17.00;99.90;;;;;;5036679;28;20425;-73
2022/10/20 00:04:57;;;;;;;1999.90;999.90;;;17.00;99.90;;;;;;5036865;28;20033;-77
2022/10/20 00:07:23;;;;;;;1999.90;999.90;;;17.00;99.90;;;;;;5036050;28;20021;-75
2022/10/20 00:09:48;;;;;;;1999.90;999.90;;;17.00;99.90;;;;;;5035349;28;20026;-76
2022/10/20 00:12:14;;;;;;;1999.90;999.90;;;17.00;99.90;;;;;;5036216;28;20029;-72
2022/10/20 00:14:39;;;;;;;1999.90;999.90;;;17.00;99.90;;;;;;5036540;28;20061;-76
2022/10/20 00:17:05;;;;;;;1999.90;999.90;;;17.00;99.90;;;;;;5036176;28;20377;-75
2022/10/20 00:19:31;;;;;;;1999.90;999.90;;;17.00;99.90;;;;;;5034710;28;20030;-74
2022/10/20 00:21:58;;;;;;;1999.90;999.90;;;17.00;99.90;;;;;;5035324;28;20083;-76
2022/10/20 00:24:23;;;;;;;1999.90;999.90;;;16.90;99.90;;;;;;5035923;28;20080;-74
2022/10/20 00:26:49;;;;;;;1999.90;999.90;;;16.90;99.90;;;;;;5036372;28;20034;-76
2022/10/20 00:29:15;;;;;;;1999.90;999.90;;;16.80;99.90;;;;;;5035893;28;20049;-74
2022/10/20 00:31:41;;;;;;;1999.90;999.90;;;16.80;99.90;;;;;;5036464;28;20072;-76
2022/10/20 00:34:06;;;;;;;1999.90;999.90;;;16.80;99.90;;;;;;5036099;28;20033;-76
2022/10/20 00:36:32;;;;;;;1999.90;999.90;;;16.80;99.90;;;;;;5035759;28;20492;-76
2022/10/20 00:39:03;;;;;;;1999.90;999.90;;;16.80;99.90;;;;;;5035384;28;20101;-75
2022/10/20 00:41:29;;;;;;;1999.90;999.90;;;16.80;99.90;;;;;;5018359;28;20037;-77
2022/10/20 00:44:18;;;;;;;1999.90;999.90;;;16.80;99.90;;;;;;5035874;28;20117;-74
2022/10/20 00:46:43;;;;;;;1999.90;999.90;;;16.80;99.90;;;;;;5035005;28;20032;-75
2022/10/20 00:49:17;;;;;;;1999.90;999.90;;;16.80;99.90;;;;;;5035953;28;20029;-77
2022/10/20 00:51:43;;;;;;;1999.90;999.90;;;16.90;99.90;;;;;;5035482;28;20068;-74
2022/10/20 00:54:13;;;;;;;1999.90;999.90;;;16.90;99.90;;;;;;5035649;28;20140;-76
2022/10/20 00:56:41;;;;;;;1999.90;999.90;;;16.80;99.90;;;;;;5035626;28;20033;-77
2022/10/20 00:59:08;;;;;;;1999.90;999.90;;;16.70;99.90;;;;;;5031710;28;20074;-76
2022/10/20 01:01:34;;;;;;;1999.90;999.90;;;16.70;99.90;;;;;;5035677;28;20018;-74
2022/10/20 01:04:00;;;;;;;1999.90;999.90;;;16.60;99.90;;;;;;5035484;28;20056;-76
2022/10/20 01:06:26;;;;;;;1999.90;999.90;;;16.60;99.90;;;;;;5035096;28;20139;-75
2022/10/20 01:08:52;;;;;;;1999.90;999.90;;;16.60;99.90;;;;;;5035153;28;20091;-75
2022/10/20 01:11:30;;;;;;;1999.90;999.90;;;16.60;99.90;;;;;;5016339;28;20040;-76
2022/10/20 01:14:08;;;;;;;1999.90;999.90;;;16.60;99.90;;;;;;5034783;28;20047;-75
2022/10/20 01:16:54;;;;;;;1999.90;999.90;;;16.60;99.90;;;;;;5035540;28;20037;-74
2022/10/20 01:19:32;;;;;;;1999.90;999.90;;;16.70;99.90;;;;;;5034202;28;20033;-77
2022/10/20 01:22:10;;;;;;;1999.90;999.90;;;16.70;99.90;;;;;;5034402;28;20018;-77
2022/10/20 01:25:11;;;;;;;1999.90;999.90;;;16.70;99.90;;;;;;5033911;28;20056;-77
2022/10/20 01:27:49;;;;;;;1999.90;999.90;;;16.60;99.90;;;;;;5011544;28;20045;-76
2022/10/20 01:30:20;;;;;;;1999.90;999.90;;;16.60;99.90;;;;;;5034744;28;20028;-77
2022/10/20 01:33:04;;;;;;;1999.90;999.90;;;16.60;99.90;;;;;;5035079;28;20424;-77
2022/10/20 01:35:48;;;;;;;1999.90;999.90;;;16.60;99.90;;;;;;5030939;28;20026;-78
2022/10/20 01:38:29;;;;;;;1999.90;999.90;;;16.50;99.90;;;;;;5014552;28;20450;-77
2022/10/20 01:41:03;;;;;;;1999.90;999.90;;;16.50;99.90;;;;;;5033777;28;20025;-74
2022/10/20 01:43:34;;;;;;;1999.90;999.90;;;16.50;99.90;;;;;;5034813;28;20029;-74
2022/10/20 01:46:01;;;;;;;1999.90;999.90;;;16.50;99.90;;;;;;5034751;28;20361;-74
2022/10/20 01:48:31;;;;;;;1999.90;999.90;;;16.50;99.90;;;;;;5034523;28;20029;-76
2022/10/20 01:50:56;;;;;;;1999.90;999.90;;;16.50;99.90;;;;;;5034458;28;20026;-75
2022/10/20 01:53:22;;;;;;;1999.90;999.90;;;16.50;99.90;;;;;;5034622;28;20035;-77
2022/10/20 01:55:53;;;;;;;1999.90;999.90;;;16.40;99.90;;;;;;5032714;28;20026;-78
2022/10/20 01:58:51;;;;;;;1999.90;999.90;;;16.40;99.90;;;;;;5034303;28;20017;-77
2022/10/20 02:01:34;;;;;;;1999.90;999.90;;;16.40;99.90;;;;;;5034565;28;20029;-76
2022/10/20 02:04:01;;;;;;;1999.90;999.90;;;16.30;99.90;;;;;;5033809;28;20026;-77
2022/10/20 02:06:53;;;;;;;1999.90;999.90;;;16.30;99.90;;;;;;5034395;28;20378;-74
2022/10/20 02:09:59;;;;;;;1999.90;999.90;;;16.30;99.90;;;;;;5033378;28;20021;-77
2022/10/20 02:12:31;;;;;;;1999.90;999.90;;;16.20;99.90;;;;;;4934710;29;20152;-77
2022/10/20 02:14:57;;;;;;;1999.90;999.90;;;16.10;99.90;;;;;;4934891;29;20040;-77
2022/10/20 02:17:23;;;;;;;1999.90;999.90;;;16.10;99.90;;;;;;4935324;29;20119;-77
2022/10/20 02:19:52;;;;;;;1999.90;999.90;;;16.10;99.90;;;;;;4934041;29;20172;-76
2022/10/20 02:22:19;;;;;;;1999.90;999.90;;;16.10;99.90;;;;;;4933481;29;20452;-76
2022/10/20 02:24:45;;;;;;;1999.90;999.90;;;16.10;99.90;;;;;;4934370;29;20027;-76
2022/10/20 02:27:15;;;;;;;1999.90;999.90;;;16.00;99.90;;;;;;4918353;29;20047;-76
2022/10/20 02:29:51;;;;;;;1999.90;999.90;;;16.00;99.90;;;;;;4918647;29;20123;-77
2022/10/20 02:32:17;;;;;;;1999.90;999.90;;;16.00;99.90;;;;;;4918445;28;20043;-77
2022/10/20 02:34:43;;;;;;;1999.90;999.90;;;16.00;99.90;;;;;;4934480;29;20041;-75
2022/10/20 02:37:09;;;;;;;1999.90;999.90;;;16.00;99.90;;;;;;4934021;29;20031;-77
2022/10/20 02:39:35;;;;;;;1999.90;999.90;;;16.00;99.90;;;;;;4941789;29;20036;-77
2022/10/20 02:42:00;;;;;;;1999.90;999.90;;;16.00;99.90;;;;;;4953688;29;20099;-77
2022/10/20 02:44:26;;;;;;;1999.90;999.90;;;16.00;99.90;;;;;;4937458;29;20179;-77
2022/10/20 02:46:52;;;;;;;1999.90;999.90;;;16.00;99.90;;;;;;4998684;28;20068;-75
2022/10/20 02:49:19;;;;;;;1999.90;999.90;;;15.90;99.90;;;;;;5013895;28;20078;-77
2022/10/20 02:51:44;;;;;;;1999.90;999.90;;;15.90;99.90;;;;;;5013600;28;20046;-77
2022/10/20 02:54:10;;;;;;;1999.90;999.90;;;15.90;99.90;;;;;;5013973;28;20033;-77
2022/10/20 02:56:36;;;;;;;1999.90;999.90;;;15.90;99.90;;;;;;5004907;28;20471;-77
2022/10/20 02:59:01;;;;;;;1999.90;999.90;;;15.90;99.90;;;;;;5033370;28;20029;-76
2022/10/20 03:01:27;;;;;;;1999.90;999.90;;;15.80;99.90;;;;;;5015732;28;20026;-75
2022/10/20 03:03:57;;;;;;;1999.90;999.90;;;15.80;99.90;;;;;;5033312;28;20420;-76
2022/10/20 03:06:23;;;;;;;1999.90;999.90;;;15.80;99.90;;;;;;5033340;28;20028;-76
2022/10/20 03:08:48;;;;;;;1999.90;999.90;;;15.80;99.90;;;;;;5032982;28;20029;-75
2022/10/20 03:11:14;;;;;;;1999.90;999.90;;;15.70;99.90;;;;;;5031413;28;20036;-77
2022/10/20 03:13:39;;;;;;;1999.90;999.90;;;15.70;99.90;;;;;;5033156;28;20488;-78
2022/10/20 03:16:05;;;;;;;1999.90;999.90;;;15.70;99.90;;;;;;5033300;28;20059;-75
2022/10/20 03:18:31;;;;;;;1999.90;999.90;;;15.60;99.90;;;;;;5032928;28;20037;-77
2022/10/20 03:20:56;;;;;;;1999.90;999.90;;;15.60;99.90;;;;;;5032464;28;20044;-77
2022/10/20 03:23:22;;;;;;;1999.90;999.90;;;15.60;99.90;;;;;;5033112;28;20037;-77
2022/10/20 03:25:48;;;;;;;1999.90;999.90;;;15.60;99.90;;;;;;5033043;28;20107;-77
2022/10/20 03:28:13;;;;;;;1999.90;999.90;;;15.60;99.90;;;;;;5033222;28;20053;-75
2022/10/20 03:30:39;;;;;;;1999.90;999.90;;;15.50;99.90;;;;;;5031805;28;20130;-77
2022/10/20 03:33:05;;;;;;;1999.90;999.90;;;15.60;99.90;;;;;;5033185;28;20022;-77
2022/10/20 03:35:30;;;;;;;1999.90;999.90;;;15.60;99.90;;;;;;5029002;28;20476;-76
2022/10/20 03:37:56;;;;;;;1999.90;999.90;;;15.60;99.90;;;;;;5012829;28;20026;-74
2022/10/20 03:40:22;;;;;;;1999.90;999.90;;;15.70;99.90;;;;;;5027249;28;20025;-75
2022/10/20 03:42:48;;;;;;;1999.90;999.90;;;15.60;99.90;;;;;;5033211;28;20362;-77
2022/10/20 03:45:13;;;;;;;1999.90;999.90;;;15.60;99.90;;;;;;5032796;28;20045;-77
2022/10/20 03:47:39;;;;;;;1999.90;999.90;;;15.50;99.90;;;;;;5033235;28;20026;-78
2022/10/20 03:50:05;;;;;;;1999.90;999.90;;;15.50;99.90;;;;;;5031265;28;20395;-77
2022/10/20 03:52:30;;;;;;;1999.90;999.90;;;15.50;99.90;;;;;;5033181;28;20053;-75
2022/10/20 03:54:56;;;;;;;1999.90;999.90;;;15.50;99.90;;;;;;5033017;28;20032;-77
2022/10/20 03:57:22;;;;;;;1999.90;999.90;;;15.50;99.90;;;;;;5032460;28;20021;-77
2022/10/20 03:59:47;;;;;;;1999.90;999.90;;;15.50;99.90;;;;;;5017165;28;20030;-78
2022/10/20 04:02:33;;;;;;;1999.90;999.90;;;15.40;99.90;;;;;;5013033;28;20816;-77
2022/10/20 04:04:59;;;;;;;1999.90;999.90;;;15.40;99.90;;;;;;5029657;28;20018;-78
2022/10/20 04:07:25;;;;;;;1999.90;999.90;;;15.40;99.90;;;;;;5032832;28;20021;-78
2022/10/20 04:09:50;;;;;;;1999.90;999.90;;;15.30;99.90;;;;;;5032168;28;20385;-77
2022/10/20 04:12:16;;;;;;;1999.90;999.90;;;15.30;99.90;;;;;;5014019;28;20123;-77
2022/10/20 04:14:42;;;;;;;1999.90;999.90;;;15.30;99.90;;;;;;5015180;28;20032;-77
2022/10/20 04:17:07;;;;;;;1999.90;999.90;;;15.30;99.90;;;;;;5032902;28;20026;-77
2022/10/20 04:19:33;;;;;;;1999.90;999.90;;;15.30;99.90;;;;;;5031558;28;20060;-77
2022/10/20 04:21:59;;;;;;;1999.90;999.90;;;15.30;99.90;;;;;;5033004;28;20037;-78
2022/10/20 04:24:24;;;;;;;1999.90;999.90;;;15.20;99.90;;;;;;5018118;28;20025;-77
2022/10/20 04:26:50;;;;;;;1999.90;999.90;;;15.20;99.90;;;;;;5036224;28;20026;-77
2022/10/20 04:29:15;;;;;;;1999.90;999.90;;;15.20;99.90;;;;;;5035882;28;20053;-77
2022/10/20 04:31:43;;;;;;;1999.90;999.90;;;15.20;99.90;;;;;;5036206;28;20377;-75
2022/10/20 04:34:08;;;;;;;1999.90;999.90;;;15.20;99.90;;;;;;5036104;28;20484;-78
2022/10/20 04:36:34;;;;;;;1999.90;999.90;;;15.20;99.90;;;;;;5022836;28;20025;-78
2022/10/20 04:38:59;;;;;;;1999.90;999.90;;;15.20;99.90;;;;;;5029171;28;20037;-78
2022/10/20 04:41:25;;;;;;;1999.90;999.90;;;15.20;99.90;;;;;;5035861;28;20025;-78
2022/10/20 04:43:51;;;;;;;1999.90;999.90;;;15.20;99.90;;;;;;5017907;28;20082;-78
2022/10/20 04:46:17;;;;;;;1999.90;999.90;;;15.10;99.90;;;;;;5035719;28;20029;-78
2022/10/20 04:48:43;;;;;;;1999.90;999.90;;;15.20;99.90;;;;;;5036008;28;20021;-78
2022/10/20 04:51:11;;;;;;;1999.90;999.90;;;15.20;99.90;;;;;;5035488;28;20026;-78
2022/10/20 04:53:37;;;;;;;1999.90;999.90;;;15.20;99.90;;;;;;5035526;28;20032;-75
2022/10/20 04:56:06;;;;;;;1999.90;999.90;;;15.20;99.90;;;;;;5035264;28;20100;-75
2022/10/20 04:58:32;;;;;;;1999.90;999.90;;;15.20;99.90;;;;;;5016401;28;20032;-75
2022/10/20 05:01:09;;;;;;;1999.90;999.90;;;15.10;99.90;;;;;;5035684;28;20022;-78
2022/10/20 05:03:35;;;;;;;1999.90;999.90;;;15.10;99.90;;;;;;5035381;28;20032;-78
2022/10/20 05:06:14;;;;;;;1999.90;999.90;;;15.00;99.90;;;;;;5017281;28;20024;-78
2022/10/20 05:08:41;;;;;;;1999.90;999.90;;;15.00;99.90;;;;;;5035338;28;20029;-74
2022/10/20 05:11:07;;;;;;;1999.90;999.90;;;15.00;99.90;;;;;;5034947;28;20033;-78
2022/10/20 05:13:33;;;;;;;1999.90;999.90;;;14.90;99.90;;;;;;5034364;28;20376;-75
2022/10/20 05:15:59;;;;;;;1999.90;999.90;;;14.90;99.90;;;;;;5034963;28;20034;-73
2022/10/20 05:18:24;;;;;;;1999.90;999.90;;;14.90;99.90;;;;;;5035832;28;20692;-72
2022/10/20 05:20:50;;;;;;;1999.90;999.90;;;14.90;99.90;;;;;;5034619;28;20029;-72
2022/10/20 05:23:16;;;;;;;1999.90;999.90;;;14.90;99.90;;;;;;5035003;28;20483;-72
2022/10/20 05:25:41;;;;;;;1999.90;999.90;;;14.90;99.90;;;;;;5034597;28;20028;-75
2022/10/20 05:28:07;;;;;;;1999.90;999.90;;;14.90;99.90;;;;;;5034902;28;20104;-76
2022/10/20 05:30:36;;;;;;;1999.90;999.90;;;14.90;99.90;;;;;;5035482;28;20052;-76
2022/10/20 05:33:02;;;;;;;1999.90;999.90;;;14.80;99.90;;;;;;5034540;28;20113;-76
2022/10/20 05:35:28;;;;;;;1999.90;999.90;;;14.80;99.90;;;;;;5031612;28;20025;-76
2022/10/20 05:37:54;;;;;;;1999.90;999.90;;;14.80;99.90;;;;;;5034438;28;20024;-73
2022/10/20 05:40:20;;;;;;;1999.90;999.90;;;14.80;99.90;;;;;;5033971;28;20508;-76
2022/10/20 05:42:46;;;;;;;1999.90;999.90;;;14.80;99.90;;;;;;5025095;28;20049;-77
2022/10/20 05:45:11;;;;;;;1999.90;999.90;;;14.80;99.90;;;;;;5033450;28;20418;-77
2022/10/20 05:47:37;;;;;;;1999.90;999.90;;;14.90;99.90;;;;;;5030300;28;20029;-73
2022/10/20 05:50:03;;;;;;;1999.90;999.90;;;14.80;99.90;;;;;;5033940;28;20123;-73
2022/10/20 05:52:29;;;;;;;1999.90;999.90;;;14.80;99.90;;;;;;5032396;28;20485;-75
2022/10/20 05:54:54;;;;;;;1999.90;999.90;;;14.80;99.90;;;;;;5033717;28;20026;-73
2022/10/20 05:57:20;;;;;;;1999.90;999.90;;;14.80;99.90;;;;;;5033092;28;20040;-78
2022/10/20 05:59:45;;;;;;;1999.90;999.90;;;14.80;99.90;;;;;;5033708;28;20033;-78
2022/10/20 06:02:11;;;;;;;1999.90;999.90;;;14.90;99.90;;;;;;5033824;28;20477;-77
2022/10/20 06:04:37;;;;;;;1999.90;999.90;;;14.90;99.90;;;;;;5034106;28;20033;-73
2022/10/20 06:07:08;;;;;;;1999.90;999.90;;;14.90;99.90;;;;;;5033566;28;20448;-77
2022/10/20 06:09:35;;;;;;;1999.90;999.90;;;14.90;99.90;;;;;;5033620;28;20392;-74
2022/10/20 06:12:01;;;;;;;1999.90;999.90;;;14.90;99.90;;;;;;5032977;28;20554;-78
2022/10/20 06:14:27;;;;;;;1999.90;999.90;;;14.80;99.90;;;;;;5031177;28;20109;-74
2022/10/20 06:16:53;;;;;;;1999.90;999.90;;;14.80;99.90;;;;;;5029175;28;20026;-78
2022/10/20 06:19:19;;;;;;;1999.90;999.90;;;14.80;99.90;;;;;;5030639;28;20519;-74
2022/10/20 06:21:45;;;;;;;1999.90;999.90;;;14.80;99.90;;;;;;5018479;28;20085;-79
2022/10/20 06:24:11;;;;;;;1999.90;999.90;;;14.80;99.90;;;;;;5030041;28;20079;-73
2022/10/20 06:26:38;;;;;;;1999.90;999.90;;;14.90;99.90;;;;;;5030863;28;20057;-74
2022/10/20 06:29:06;;;;;;;1999.90;999.90;;;14.90;99.90;;;;;;5030787;28;20116;-73
2022/10/20 06:31:34;;;;;;;1999.90;999.90;;;14.80;99.90;;;;;;5027016;28;20497;-73
2022/10/20 06:34:02;;;;;;;1999.90;999.90;;;14.80;99.90;;;;;;5032146;28;20060;-78
2022/10/20 06:36:28;;;;;;;1999.90;999.90;;;14.80;99.90;;;;;;5027559;28;20056;-78
2022/10/20 06:38:57;;;;;;;1999.90;999.90;;;14.80;99.90;;;;;;5016357;28;20480;-78
2022/10/20 06:41:25;;;;;;;1999.90;999.90;;;14.90;99.90;;;;;;5030046;28;20022;-73
2022/10/20 06:43:58;;;;;;;1999.90;999.90;;;14.90;99.90;;;;;;5030475;28;20045;-79
2022/10/20 06:46:29;;;;;;;1999.90;999.90;;;14.90;99.90;;;;;;5028640;28;20045;-78
2022/10/20 06:48:55;;;;;;;1999.90;999.90;;;14.90;99.90;;;;;;5027641;28;20116;-78
2022/10/20 06:51:21;;;;;;;1999.90;999.90;;;15.00;99.90;;;;;;5028163;28;20559;-79
2022/10/20 06:53:47;;;;;;;1999.90;999.90;;;15.00;99.90;;;;;;5029164;28;20244;-74
2022/10/20 06:56:16;;;;;;;1999.90;999.90;;;15.00;99.90;;;;;;5024496;28;20180;-79
2022/10/20 06:58:43;;;;;;;1999.90;999.90;;;15.00;99.90;;;;;;5009739;28;20037;-78
2022/10/20 07:01:22;;;;;;;1999.90;999.90;;;15.10;99.90;;;;;;5025735;28;20072;-80
2022/10/20 07:03:48;;;;;;;1999.90;999.90;;;15.20;99.90;;;;;;5007552;28;20041;-80
2022/10/20 07:06:23;;;;;;;1999.90;999.90;;;15.20;99.90;;;;;;5011060;28;20055;-74
2022/10/20 07:08:49;;;;;;;1999.90;999.90;;;15.30;99.90;;;;;;5008005;28;20029;-74
2022/10/20 07:11:20;;;;;;;1999.90;999.90;;;15.40;99.90;;;;;;5028330;28;20025;-80
2022/10/20 07:13:48;;;;;;;1999.90;999.90;;;15.40;99.90;;;;;;5015821;28;20021;-80
2022/10/20 07:16:16;;;;;;;1999.90;999.90;;;15.40;99.90;;;;;;5024007;28;20485;-79
2022/10/20 07:18:43;;;;;;;1999.90;999.90;;;15.50;99.90;;;;;;5022564;28;20104;-80
2022/10/20 07:21:12;;;;;;;1999.90;999.90;;;15.50;99.90;;;;;;5027401;28;20396;-79
2022/10/20 07:23:39;;;;;;;1999.90;999.90;;;15.50;99.90;;;;;;5026691;28;20463;-80
2022/10/20 07:26:09;;;;;;;1999.90;999.90;;;15.60;99.90;;;;;;5028594;28;20100;-81
2022/10/20 07:28:36;;;;;;;1999.90;999.90;;;15.60;99.90;;;;;;5027637;28;20053;-74
2022/10/20 07:31:07;;;;;;;1999.90;999.90;;;15.60;99.90;;;;;;5024841;28;20025;-78
2022/10/20 07:33:33;;;;;;;1999.90;999.90;;;15.60;99.90;;;;;;5028967;28;20084;-82
2022/10/20 07:35:59;;;;;;;1999.90;999.90;;;15.60;99.90;;;;;;5025505;28;20378;-82
2022/10/20 07:38:25;;;;;;;1999.90;999.90;;;15.70;99.90;;;;;;5026826;28;20031;-81
2022/10/20 07:40:51;;;;;;;1999.90;999.90;;;15.70;99.90;;;;;;5024051;28;20439;-83
2022/10/20 07:43:17;;;;;;;1999.90;999.90;;;15.70;99.90;;;;;;5031279;28;20052;-75
2022/10/20 07:45:43;;;;;;;1999.90;999.90;;;15.70;99.90;;;;;;5028765;28;20032;-74
2022/10/20 07:48:08;;;;;;;1999.90;999.90;;;15.70;99.90;;;;;;5029839;28;20396;-75
2022/10/20 07:50:36;;;;;;;1999.90;999.90;;;16.20;99.90;;;;;;5028347;28;20022;-82
2022/10/20 07:53:02;;;;;;;1999.90;999.90;;;16.70;99.90;;;;;;5028333;28;20030;-82
2022/10/20 07:55:28;;;;;;;1999.90;999.90;;;17.20;99.90;;;;;;5025768;28;20041;-81
2022/10/20 07:57:53;;;;;;;1999.90;999.90;;;17.00;99.90;;;;;;5030196;28;20045;-74
2022/10/20 08:00:19;;;;;;;1999.90;999.90;;;16.90;99.90;;;;;;5027160;28;20402;-80
2022/10/20 08:02:45;;;;;;;1999.90;999.90;;;16.80;99.90;;;;;;5030553;28;20075;-82
2022/10/20 08:05:11;;;;;;;1999.90;999.90;;;16.50;99.90;;;;;;5029755;28;20079;-78
2022/10/20 08:07:38;;;;;;;1999.90;999.90;;;16.50;99.90;;;;;;5044023;28;20025;-74
2022/10/20 08:10:05;;;;;;;1999.90;999.90;;;16.50;99.90;;;;;;5033308;28;20064;-76
2022/10/20 08:12:34;;;;;;;1999.90;999.90;;;16.60;99.90;;;;;;5053997;28;20014;-80
2022/10/20 08:14:59;;;;;;;1999.90;999.90;;;16.70;99.90;;;;;;5052550;28;20065;-75
2022/10/20 08:17:26;;;;;;;1999.90;999.90;;;16.80;99.90;;;;;;5005644;28;20069;-81
2022/10/20 08:19:51;;;;;;;1999.90;999.90;;;17.20;99.90;;;;;;5026115;28;20061;-81
2022/10/20 08:22:18;;;;;;;1999.90;999.90;;;17.50;99.90;;;;;;5026023;28;20069;-76
2022/10/20 08:24:44;;;;;;;1999.90;999.90;;;17.90;99.90;;;;;;5027102;28;20034;-81
2022/10/20 08:27:10;;;;;;;1999.90;999.90;;;18.00;99.90;;;;;;5024790;28;20465;-75
2022/10/20 08:29:36;;;;;;;1999.90;999.90;;;17.90;99.90;;;;;;5018927;28;20040;-81
2022/10/20 08:32:02;;;;;;;1999.90;999.90;;;17.90;99.90;;;;;;5016995;28;20047;-80
2022/10/20 08:34:28;;;;;;;1999.90;999.90;;;18.00;99.90;;;;;;5009321;28;20398;-75
2022/10/20 08:36:53;;;;;;;1999.90;999.90;;;18.00;99.90;;;;;;5032056;28;20097;-75
2022/10/20 08:39:19;;;;;;;1999.90;999.90;;;17.90;99.90;;;;;;5027000;28;20025;-75
2022/10/20 08:41:47;;;;;;;1999.90;999.90;;;18.00;99.90;;;;;;5008146;28;20522;-75
2022/10/20 08:44:33;;;;;;;1999.90;999.90;;;18.50;99.90;;;;;;5027593;28;20053;-82
2022/10/20 08:47:01;;;;;;;1999.90;999.90;;;19.30;99.90;;;;;;5031417;28;20025;-82
2022/10/20 08:49:30;;;;;;;1999.90;999.90;;;19.30;99.90;;;;;;5022671;28;20164;-77
2022/10/20 08:51:57;;;;;;;1999.90;999.90;;;19.10;99.90;;;;;;5020992;28;20067;-80
2022/10/20 08:54:23;;;;;;;1999.90;999.90;;;18.80;99.90;;;;;;5008886;28;20112;-76
2022/10/20 08:56:49;;;;;;;1999.90;999.90;;;18.50;99.90;;;;;;5002491;28;20029;-81
2022/10/20 08:59:34;;;;;;;1999.90;999.90;;;18.70;99.90;;;;;;5025312;28;20072;-75
2022/10/20 09:02:05;;;;;;;1999.90;999.90;;;18.60;99.90;;;;;;5023405;28;20029;-82
2022/10/20 09:04:37;;;;;;;1999.90;999.90;;;18.80;99.90;;;;;;5020339;28;20040;-75
2022/10/20 09:07:14;;;;;;;1999.90;999.90;;;18.80;99.90;;;;;;5019442;28;20025;-76
2022/10/20 09:09:40;;;;;;;1999.90;999.90;;;18.80;99.90;;;;;;5020620;28;20029;-76
2022/10/20 09:12:09;;;;;;;1999.90;999.90;;;18.90;99.90;;;;;;5020477;28;20071;-81
2022/10/20 09:14:36;;;;;;;1999.90;999.90;;;19.50;99.90;;;;;;5022071;28;20056;-82
2022/10/20 09:17:02;;;;;;;1999.90;999.90;;;20.10;99.90;;;;;;5005996;28;20105;-78
2022/10/20 09:19:28;;;;;;;1999.90;999.90;;;20.40;99.90;;;;;;5023269;28;20136;-74
2022/10/20 09:22:03;;;;;;;1999.90;999.90;;;20.40;99.90;;;;;;4999768;28;20710;-79
2022/10/20 09:24:30;;;;;;;1999.90;999.90;;;20.50;99.90;;;;;;5028310;28;20484;-82
2022/10/20 09:27:14;;;;;;;1999.90;999.90;;;20.40;99.90;;;;;;5028982;28;20025;-81
2022/10/20 09:29:40;;;;;;;1999.90;999.90;;;20.10;99.90;;;;;;5024021;28;20036;-76
2022/10/20 09:32:37;;;;;;;1999.90;999.90;;;20.10;99.90;;;;;;5022231;28;20022;-75
2022/10/20 09:35:21;;;;;;;1999.90;999.90;;;19.90;99.90;;;;;;5019191;28;20087;-80
2022/10/20 09:37:55;;;;;;;1999.90;999.90;;;19.90;99.90;;;;;;5023741;28;20037;-80
2022/10/20 09:40:22;;;;;;;1999.90;999.90;;;20.00;99.90;;;;;;5026717;28;20022;-80
2022/10/20 09:43:10;;;;;;;1999.90;999.90;;;20.00;99.90;;;;;;5030345;28;20480;-75
2022/10/20 09:45:47;;;;;;;1999.90;999.90;;;20.00;99.90;;;;;;5026883;28;20108;-79
2022/10/20 09:48:26;;;;;;;1999.90;999.90;;;20.00;99.90;;;;;;5007515;28;20029;-81
2022/10/20 09:50:55;;;;;;;1999.90;999.90;;;20.10;99.90;;;;;;5022575;28;20496;-80
2022/10/20 09:53:27;;;;;;;1999.90;999.90;;;20.10;99.90;;;;;;5023637;28;20064;-81
2022/10/20 09:55:54;;;;;;;1999.90;999.90;;;20.20;99.90;;;;;;5026020;28;20068;-75
2022/10/20 09:58:36;;;;;;;1999.90;999.90;;;20.20;99.90;;;;;;5002344;28;20042;-76
2022/10/20 10:01:05;;;;;;;1999.90;999.90;;;20.40;99.90;;;;;;5020807;28;20680;-82
2022/10/20 10:03:43;;;;;;;1999.90;999.90;;;20.40;99.90;;;;;;5022445;28;20033;-76
2022/10/20 10:06:26;;;;;;;1999.90;999.90;;;20.50;99.90;;;;;;5027241;28;20469;-79
2022/10/20 10:08:52;;;;;;;;;;;20.60;99.90;;;;;;5010079;28;20061;-76
2022/10/20 10:11:21;;;;;;;1999.90;999.90;;;20.70;99.90;;;;;;5025071;28;19956;-75
2022/10/20 10:13:49;;;;;;;1999.90;999.90;;;20.70;99.90;;;;;;5026342;28;20033;-80
2022/10/20 10:16:18;;;;;;;1999.90;999.90;;;20.80;99.90;;;;;;5026290;28;20421;-80
2022/10/20 10:18:54;;;;;;;1999.90;999.90;;;20.90;99.90;;;;;;5029612;28;20032;-80
2022/10/20 10:21:21;;;;;;;1999.90;999.90;;;21.00;99.90;;;;;;5022186;28;20033;-76
2022/10/20 10:23:59;;;;;;;1999.90;999.90;;;21.00;99.90;;;;;;5003455;28;20029;-76
2022/10/20 10:26:44;;;;;;;1999.90;999.90;;;21.00;99.90;;;;;;5024003;28;20040;-81
2022/10/20 10:29:32;;;;;;;1999.90;999.90;;;21.20;99.90;;;;;;5025149;28;20041;-80
2022/10/20 10:32:25;;;;;;;1999.90;999.90;;;21.40;99.90;;;;;;5021702;28;20412;-80
2022/10/20 10:35:09;;;;;;;;;;;21.50;99.90;;;;;;5022793;28;20029;-76
2022/10/20 10:37:37;;;;;;;1999.90;999.90;;;21.60;99.90;;;;;;5022665;28;19909;-78
2022/10/20 10:40:34;;;;;;;1999.90;999.90;;;21.60;99.90;;;;;;5024320;28;20112;-80
2022/10/20 10:43:36;;;;;;;1999.90;999.90;;;21.80;99.90;;;;;;5006282;28;20490;-79
2022/10/20 10:46:07;;;;;;;1999.90;999.90;;;21.80;99.90;;;;;;5006434;28;20053;-79
2022/10/20 10:48:44;;;;;;;1999.90;999.90;;;22.00;99.90;;;;;;5004816;28;20040;-78
2022/10/20 10:51:23;;;;;;;1999.90;999.90;;;22.10;99.90;;;;;;5016043;28;20044;-80
2022/10/20 10:54:01;;;;;;;1999.90;999.90;;;21.80;99.90;;;;;;5014113;28;20064;-79
2022/10/20 10:56:50;;;;;;;1999.90;999.90;;;21.90;99.90;;;;;;5027961;28;20037;-80
2022/10/20 10:59:26;;;;;;;1999.90;999.90;;;21.80;99.90;;;;;;5027568;28;20078;-76
2022/10/20 11:02:40;;;;;;;1999.90;999.90;;;21.70;99.90;;;;;;5021446;28;20483;-75
2022/10/20 11:05:35;;;;;;;1999.90;999.90;;;21.60;99.90;;;;;;5018734;28;20171;-75
2022/10/20 11:08:27;;;;;;;1999.90;999.90;;;21.60;99.90;;;;;;5020360;28;20036;-80
2022/10/20 11:11:08;;;;;;;1999.90;999.90;;;21.80;99.90;;;;;;5021443;28;20033;-80
2022/10/20 11:13:50;;;;;;;1999.90;999.90;;;21.90;99.90;;;;;;5022784;28;20025;-75
2022/10/20 11:16:28;;;;;;;1999.90;999.90;;;21.80;99.90;;;;;;5023445;28;20519;-74
2022/10/20 11:19:02;;;;;;;1999.90;999.90;;;21.90;99.90;;;;;;5022334;28;20044;-79
2022/10/20 11:21:37;;;;;;;1999.90;999.90;;;21.90;99.90;;;;;;5016359;28;20073;-79
2022/10/20 11:24:09;;;;;;;1999.90;999.90;;;22.00;99.90;;;;;;5020609;28;20029;-80
2022/10/20 11:26:43;;;;;;;1999.90;999.90;;;22.00;99.90;;;;;;5022849;28;20029;-77
2022/10/20 11:29:30;;;;;;;1999.90;999.90;;;22.00;99.90;;;;;;5025293;28;20077;-76
2022/10/20 11:32:11;;;;;;;1999.90;999.90;;;22.10;99.90;;;;;;5005616;28;20018;-80
2022/10/20 11:34:51;;;;;;;1999.90;999.90;;;22.00;99.90;;;;;;5025072;28;20043;-80
2022/10/20 11:37:30;;;;;;;1999.90;999.90;;;22.00;99.90;;;;;;5008698;28;20030;-80
2022/10/20 11:40:20;;;;;;;1999.90;999.90;;;22.20;99.90;;;;;;5007875;28;20400;-77
2022/10/20 11:43:20;;;;;;;1999.90;999.90;;;22.50;99.90;;;;;;5027261;28;21688;-78
2022/10/20 11:46:10;;;;;;;1999.90;999.90;;;22.50;99.90;;;;;;5029082;28;20036;-81
2022/10/20 11:49:03;;;;;;;1999.90;999.90;;;22.40;99.90;;;;;;5029240;28;20144;-80
2022/10/20 11:51:28;;;;;;;1999.90;999.90;;;22.50;99.90;;;;;;5027424;28;20045;-78
2022/10/20 11:54:15;;;;;;;1999.90;999.90;;;22.50;99.90;;;;;;5023698;28;20361;-75
2022/10/20 11:57:07;;;;;;;1999.90;999.90;;;22.60;99.90;;;;;;5030196;28;20044;-76
2022/10/20 11:59:32;;;;;;;1999.90;999.90;;;22.50;99.90;;;;;;5021565;28;20036;-75
2022/10/20 12:02:17;;;;;;;1999.90;999.90;;;22.40;99.90;;;;;;5024474;28;20033;-79
2022/10/20 12:04:52;;;;;;;1999.90;999.90;;;22.40;99.90;;;;;;5027103;28;20036;-78
2022/10/20 12:07:29;;;;;;;1999.90;999.90;;;22.50;99.90;;;;;;5004011;28;20419;-79
2022/10/20 12:10:23;;;;;;;1999.90;999.90;;;22.70;99.90;;;;;;5027552;28;20029;-75
2022/10/20 12:13:29;;;;;;;1999.90;999.90;;;23.00;99.90;;;;;;5030337;28;20095;-75
2022/10/20 12:15:55;;;;;;;1999.90;999.90;;;23.20;99.90;;;;;;4994062;28;20511;-79
2022/10/20 12:18:32;;;;;;;1999.90;999.90;;;23.20;99.90;;;;;;5027143;28;20034;-75